createdAt,value
2023-03-08T00:00:30.014Z,7.95
2023-03-08T00:03:02.950Z,7.53
2023-03-08T00:05:33.163Z,7.30
2023-03-08T00:08:03.430Z,8.00
2023-03-08T00:10:33.620Z,9.65
2023-03-08T00:13:03.926Z,6.95
2023-03-08T00:15:34.140Z,7.35
2023-03-08T00:18:07.212Z,8.65
2023-03-08T00:20:37.827Z,8.57
2023-03-08T00:23:08.168Z,11.32
2023-03-08T00:25:38.367Z,9.18
2023-03-08T00:28:08.751Z,9.45
2023-03-08T00:30:38.960Z,9.15
2023-03-08T00:33:11.859Z,9.90
2023-03-08T00:35:42.098Z,9.20
2023-03-08T00:38:12.636Z,8.85
2023-03-08T00:40:42.820Z,9.52
2023-03-08T00:43:13.191Z,9.43
2023-03-08T00:45:43.406Z,8.82
2023-03-08T00:48:16.277Z,8.98
2023-03-08T00:50:46.611Z,9.23
2023-03-08T00:53:16.890Z,9.23
2023-03-08T00:55:51.837Z,10.13
2023-03-08T00:58:22.194Z,9.90
2023-03-08T01:00:52.555Z,9.65
2023-03-08T01:03:25.612Z,9.93
2023-03-08T01:05:56.658Z,8.35
2023-03-08T01:08:27.471Z,9.77
2023-03-08T01:10:59.362Z,9.68
2023-03-08T01:13:30.570Z,9.85
2023-03-08T01:16:00.854Z,9.80
2023-03-08T01:18:33.856Z,9.30
2023-03-08T01:21:05.614Z,10.05
2023-03-08T01:23:35.990Z,9.40
2023-03-08T01:26:07.075Z,9.35
2023-03-08T01:28:37.640Z,8.75
2023-03-08T01:31:09.033Z,9.68
2023-03-08T01:33:42.145Z,9.18
2023-03-08T01:36:13.661Z,8.30
2023-03-08T01:41:17.380Z,8.23
2023-03-08T01:43:47.780Z,8.35
2023-03-08T01:46:22.525Z,8.40
2023-03-08T01:48:57.094Z,8.50
2023-03-08T01:51:29.869Z,8.20
2023-03-08T01:54:01.312Z,10.05
2023-03-08T01:59:02.461Z,7.75
2023-03-08T02:01:32.807Z,8.07
2023-03-08T02:04:05.912Z,10.70
2023-03-08T02:06:36.274Z,7.45
2023-03-08T02:09:06.705Z,8.82
2023-03-08T02:11:37.753Z,8.18
2023-03-08T02:14:08.024Z,8.45
2023-03-08T02:16:38.234Z,7.75
2023-03-08T02:19:16.119Z,8.35
2023-03-08T02:21:46.298Z,8.75
2023-03-08T02:24:28.917Z,9.15
2023-03-08T02:27:03.616Z,8.30
2023-03-08T02:29:33.989Z,9.05
2023-03-08T02:32:04.261Z,8.35
2023-03-08T02:34:34.556Z,9.55
2023-03-08T02:37:04.866Z,8.88
2023-03-08T02:39:37.857Z,8.77
2023-03-08T02:42:08.403Z,8.55
2023-03-08T02:44:38.682Z,9.00
2023-03-08T02:47:09.143Z,8.75
2023-03-08T02:49:39.688Z,10.45
2023-03-08T02:52:09.986Z,9.35
2023-03-08T02:54:42.849Z,8.90
2023-03-08T02:57:13.056Z,9.82
2023-03-08T02:59:43.364Z,9.13
2023-03-08T03:02:13.539Z,9.43
2023-03-08T03:04:43.809Z,9.25
2023-03-08T03:07:14.017Z,9.20
2023-03-08T03:09:47.102Z,8.98
2023-03-08T03:12:17.301Z,10.07
2023-03-08T03:14:47.697Z,9.80
2023-03-08T03:17:17.901Z,10.85
2023-03-08T03:19:48.357Z,9.60
2023-03-08T03:22:18.565Z,11.07
2023-03-08T03:24:53.159Z,10.52
2023-03-08T03:27:23.666Z,11.27
2023-03-08T03:29:54.127Z,10.95
2023-03-08T03:32:24.331Z,10.45
2023-03-08T03:34:54.697Z,10.95
2023-03-08T03:37:25.086Z,11.00
2023-03-08T03:39:58.180Z,11.57
2023-03-08T03:42:28.438Z,11.13
2023-03-08T03:44:58.651Z,9.98
2023-03-08T03:47:28.886Z,11.27
2023-03-08T03:49:59.140Z,10.63
2023-03-08T03:52:29.321Z,10.00
2023-03-08T03:55:02.167Z,7.97
2023-03-08T03:57:32.361Z,7.18
2023-03-08T04:00:02.627Z,8.95
2023-03-08T04:02:32.915Z,9.07
2023-03-08T04:05:03.224Z,9.18
2023-03-08T04:07:33.432Z,8.57
2023-03-08T04:10:06.372Z,7.95
2023-03-08T04:12:36.604Z,6.20
2023-03-08T04:15:07.154Z,7.53
2023-03-08T04:17:37.361Z,8.98
2023-03-08T04:20:09.014Z,7.25
2023-03-08T04:25:12.553Z,6.80
2023-03-08T04:27:42.719Z,5.32
2023-03-08T04:30:14.011Z,7.70
2023-03-08T04:32:44.354Z,7.68
2023-03-08T04:35:14.599Z,7.85
2023-03-08T04:37:46.811Z,7.25
2023-03-08T04:40:21.403Z,7.32
2023-03-08T04:42:51.597Z,6.72
2023-03-08T04:45:22.259Z,10.18
2023-03-08T04:47:52.511Z,7.93
2023-03-08T04:50:22.825Z,7.95
2023-03-08T04:52:53.023Z,2.70
2023-03-08T04:55:25.906Z,4.05
2023-03-08T04:57:56.113Z,2.83
2023-03-08T05:00:26.721Z,3.13
2023-03-08T05:02:56.951Z,2.80
2023-03-08T05:05:27.376Z,2.92
2023-03-08T05:07:57.560Z,3.13
2023-03-08T05:10:30.420Z,1.65
2023-03-08T05:13:00.903Z,3.30
2023-03-08T05:15:31.266Z,3.08
2023-03-08T05:18:04.327Z,3.08
2023-03-08T05:20:34.926Z,3.53
2023-03-08T05:23:05.123Z,3.13
2023-03-08T05:25:38.216Z,3.42
2023-03-08T05:28:08.442Z,2.47
2023-03-08T05:30:38.868Z,4.75
2023-03-08T05:33:09.099Z,5.45
2023-03-08T05:35:39.375Z,2.83
2023-03-08T05:38:09.725Z,2.90
2023-03-08T05:40:43.693Z,1.48
2023-03-08T05:43:13.968Z,2.65
2023-03-08T05:45:44.795Z,2.13
2023-03-08T05:48:15.065Z,2.35
2023-03-08T05:50:45.770Z,2.10
2023-03-08T05:53:16.038Z,2.85
2023-03-08T05:55:49.022Z,1.80
2023-03-08T05:58:19.708Z,2.13
2023-03-08T06:00:50.185Z,2.65
2023-03-08T06:03:20.431Z,2.10
2023-03-08T06:05:50.657Z,2.22
2023-03-08T06:08:20.917Z,2.25
2023-03-08T06:10:53.798Z,2.38
2023-03-08T06:13:24.027Z,2.13
2023-03-08T06:15:57.146Z,2.50
2023-03-08T06:18:27.727Z,2.17
2023-03-08T06:21:05.349Z,2.42
2023-03-08T06:23:36.854Z,1.73
2023-03-08T06:26:10.303Z,2.50
2023-03-08T06:28:40.738Z,1.85
2023-03-08T06:31:11.265Z,2.13
2023-03-08T06:33:41.525Z,1.20
2023-03-08T06:36:13.269Z,1.58
2023-03-08T06:41:16.635Z,1.20
2023-03-08T06:43:46.992Z,1.40
2023-03-08T06:46:18.911Z,2.05
2023-03-08T06:48:49.722Z,0.93
2023-03-08T06:51:20.341Z,2.13
2023-03-08T06:53:50.947Z,1.80
2023-03-08T06:56:24.542Z,2.22
2023-03-08T06:58:54.771Z,1.20
2023-03-08T07:01:25.195Z,1.70
2023-03-08T07:03:55.624Z,1.10
2023-03-08T07:06:25.955Z,3.45
2023-03-08T07:08:56.228Z,1.77
2023-03-08T07:11:31.180Z,2.20
2023-03-08T07:14:02.512Z,1.35
2023-03-08T07:16:32.768Z,1.10
2023-03-08T07:19:04.722Z,1.48
2023-03-08T07:21:34.964Z,1.30
2023-03-08T07:24:05.200Z,1.67
2023-03-08T07:26:38.054Z,2.28
2023-03-08T07:29:08.264Z,1.83
2023-03-08T07:31:38.706Z,2.80
2023-03-08T07:34:08.984Z,1.23
2023-03-08T07:36:40.486Z,1.52
2023-03-08T07:39:10.698Z,1.75
2023-03-08T07:41:43.517Z,1.65
2023-03-08T07:44:13.766Z,1.13
2023-03-08T07:46:44.108Z,1.67
2023-03-08T07:49:14.307Z,1.30
2023-03-08T07:51:44.601Z,1.63
2023-03-08T07:54:14.809Z,1.63
2023-03-08T07:56:47.612Z,1.55
2023-03-08T07:59:17.834Z,1.65
2023-03-08T08:01:48.244Z,3.10
2023-03-08T08:04:18.486Z,2.30
2023-03-08T08:06:48.869Z,2.17
2023-03-08T08:09:19.578Z,4.32
2023-03-08T08:11:52.440Z,2.22
2023-03-08T08:14:22.680Z,3.22
2023-03-08T08:16:53.168Z,4.00
2023-03-08T08:19:23.421Z,3.80
2023-03-08T08:21:53.669Z,3.45
2023-03-08T08:24:23.916Z,3.30
2023-03-08T08:26:56.773Z,3.60
2023-03-08T08:29:27.145Z,3.28
2023-03-08T08:31:57.562Z,3.65
2023-03-08T08:34:28.236Z,3.47
2023-03-08T08:36:58.467Z,2.08
2023-03-08T08:39:28.696Z,3.60
2023-03-08T08:42:01.572Z,4.30
2023-03-08T08:44:31.757Z,1.65
2023-03-08T08:47:02.004Z,3.20
2023-03-08T08:49:32.212Z,1.85
2023-03-08T08:52:02.472Z,2.90
2023-03-08T08:54:33.912Z,4.80
2023-03-08T08:57:06.909Z,4.70
2023-03-08T08:59:37.119Z,3.28
2023-03-08T09:02:07.707Z,2.28
2023-03-08T09:04:38.125Z,2.83
2023-03-08T09:07:09.170Z,2.33
2023-03-08T09:09:39.390Z,3.08
2023-03-08T09:12:12.540Z,3.22
2023-03-08T09:14:42.728Z,2.95
2023-03-08T09:17:12.978Z,3.25
2023-03-08T09:19:43.234Z,3.88
2023-03-08T09:22:14.553Z,2.95
2023-03-08T09:24:45.925Z,3.00
2023-03-08T09:27:18.894Z,4.32
2023-03-08T09:29:51.682Z,4.15
2023-03-08T09:32:22.079Z,4.22
2023-03-08T09:34:52.437Z,4.18
2023-03-08T09:37:22.881Z,5.25
2023-03-08T09:39:54.582Z,4.32
2023-03-08T09:45:10.344Z,5.43
2023-03-08T09:47:44.596Z,4.15
2023-03-08T09:50:35.857Z,3.22
2023-03-08T09:53:08.455Z,3.83
2023-03-08T09:55:39.985Z,3.05
2023-03-08T09:58:17.851Z,3.03
2023-03-08T10:00:50.750Z,4.05
2023-03-08T10:03:34.964Z,4.00
2023-03-08T10:06:09.725Z,5.05
2023-03-08T10:08:45.602Z,4.85
2023-03-08T10:11:19.369Z,5.65
2023-03-08T10:13:51.983Z,3.80
2023-03-08T10:16:26.718Z,5.43
2023-03-08T10:18:58.938Z,4.93
2023-03-08T10:21:30.409Z,5.40
2023-03-08T10:24:03.998Z,5.05
2023-03-08T10:26:34.482Z,2.75
2023-03-08T10:29:04.729Z,8.23
2023-03-08T10:31:37.582Z,7.13
2023-03-08T10:34:10.800Z,5.18
2023-03-08T10:36:50.818Z,5.65
2023-03-08T10:39:21.407Z,3.20
2023-03-08T10:41:52.704Z,4.50
2023-03-08T10:44:33.926Z,6.03
2023-03-08T10:47:07.709Z,5.28
2023-03-08T10:49:38.114Z,5.72
2023-03-08T10:52:08.500Z,5.55
2023-03-08T10:54:39.140Z,5.78
2023-03-08T10:57:09.481Z,5.13
2023-03-08T10:59:40.232Z,5.35
2023-03-08T11:02:23.003Z,6.53
2023-03-08T11:04:57.336Z,5.35
2023-03-08T11:07:29.203Z,6.22
2023-03-08T11:10:08.645Z,8.05
2023-03-08T11:12:38.989Z,5.65
2023-03-08T11:15:16.147Z,6.80
2023-03-08T11:17:51.923Z,6.70
2023-03-08T11:20:25.077Z,5.50
2023-03-08T11:23:00.051Z,4.88
2023-03-08T11:25:39.753Z,4.38
2023-03-08T11:28:23.483Z,4.20
2023-03-08T11:30:58.788Z,5.07
2023-03-08T11:33:45.813Z,6.07
2023-03-08T11:36:20.419Z,6.97
2023-03-08T11:38:54.182Z,8.05
2023-03-08T11:41:27.528Z,5.85
2023-03-08T11:44:06.768Z,9.45
2023-03-08T11:46:44.353Z,8.27
2023-03-08T11:49:27.000Z,4.82
2023-03-08T11:51:59.201Z,8.13
2023-03-08T11:54:39.534Z,5.05
2023-03-08T11:57:12.536Z,7.07
2023-03-08T11:59:43.647Z,6.97
2023-03-08T12:02:17.768Z,6.57
2023-03-08T12:04:53.687Z,8.07
2023-03-08T12:07:28.244Z,6.15
2023-03-08T12:09:59.909Z,7.93
2023-03-08T12:15:02.961Z,6.60
2023-03-08T12:17:37.781Z,6.00
2023-03-08T12:20:16.628Z,7.43
2023-03-08T12:22:49.396Z,5.78
2023-03-08T12:25:24.748Z,10.27
2023-03-08T12:27:57.752Z,10.50
2023-03-08T12:30:37.315Z,7.55
2023-03-08T12:33:09.006Z,7.75
2023-03-08T12:38:24.286Z,9.88
2023-03-08T12:40:57.964Z,6.45
2023-03-08T12:43:35.506Z,11.80
2023-03-08T12:46:07.426Z,8.70
2023-03-08T12:48:39.485Z,10.20
2023-03-08T12:51:12.553Z,8.63
2023-03-08T12:53:44.679Z,10.60
2023-03-08T12:56:24.334Z,5.93
2023-03-08T12:58:56.320Z,8.73
2023-03-08T13:01:34.516Z,10.35
2023-03-08T13:04:05.143Z,10.70
2023-03-08T13:06:53.639Z,11.18
2023-03-08T13:09:25.915Z,8.60
2023-03-08T13:12:01.668Z,10.93
2023-03-08T13:14:41.265Z,7.68
2023-03-08T13:17:26.481Z,9.82
2023-03-08T13:19:56.974Z,11.18
2023-03-08T13:22:28.825Z,12.35
2023-03-08T13:25:01.631Z,11.20
2023-03-08T13:27:40.617Z,12.07
2023-03-08T13:30:23.334Z,10.55
2023-03-08T13:32:53.771Z,11.50
2023-03-08T13:35:25.238Z,12.80
2023-03-08T13:37:56.440Z,10.73
2023-03-08T13:40:27.151Z,9.88
2023-03-08T13:43:02.413Z,10.57
2023-03-08T13:45:32.989Z,10.50
2023-03-08T13:48:04.342Z,5.90
2023-03-08T13:50:35.794Z,7.22
2023-03-08T13:53:08.027Z,10.18
2023-03-08T13:55:39.522Z,8.98
2023-03-08T13:58:19.756Z,10.73
2023-03-08T14:00:50.147Z,12.82
2023-03-08T14:03:24.134Z,10.93
2023-03-08T14:05:54.575Z,9.80
2023-03-08T14:08:26.066Z,11.90
2023-03-08T14:10:57.642Z,12.70
2023-03-08T14:13:31.597Z,10.23
2023-03-08T14:16:02.805Z,9.43
2023-03-08T14:18:35.229Z,9.55
2023-03-08T14:21:10.764Z,11.43
2023-03-08T14:23:43.101Z,12.38
2023-03-08T14:26:30.118Z,11.90
2023-03-08T14:29:21.874Z,11.20
2023-03-08T14:32:02.656Z,13.73
2023-03-08T14:34:36.210Z,8.07
2023-03-08T14:37:08.246Z,10.35
2023-03-08T14:39:39.279Z,11.13
2023-03-08T14:42:13.692Z,10.13
2023-03-08T14:44:44.145Z,11.05
2023-03-08T14:47:23.946Z,6.78
2023-03-08T14:50:05.101Z,12.40
2023-03-08T14:52:37.900Z,11.80
2023-03-08T14:55:22.500Z,12.35
2023-03-08T14:57:53.383Z,12.18
2023-03-08T15:00:24.721Z,12.68
2023-03-08T15:02:57.587Z,15.75
2023-03-08T15:05:29.995Z,13.52
2023-03-08T15:08:01.937Z,14.10
2023-03-08T15:10:34.118Z,13.50
2023-03-08T15:13:04.476Z,12.50
2023-03-08T15:15:34.802Z,13.60
2023-03-08T15:18:07.749Z,13.85
2023-03-08T15:20:38.096Z,13.75
2023-03-08T15:23:09.708Z,12.68
2023-03-08T15:28:10.050Z,9.10
2023-03-08T15:30:40.260Z,14.02
2023-03-08T15:33:13.321Z,12.27
2023-03-08T15:35:43.945Z,13.77
2023-03-08T15:38:15.277Z,12.27
2023-03-08T15:40:45.678Z,14.35
2023-03-08T15:43:16.179Z,13.60
2023-03-08T15:45:46.924Z,10.57
2023-03-08T15:48:20.655Z,12.88
2023-03-08T15:50:50.904Z,12.27
2023-03-08T15:53:34.538Z,12.75
2023-03-08T15:56:05.797Z,12.98
2023-03-08T15:58:36.101Z,12.10
2023-03-08T16:01:06.364Z,12.65
2023-03-08T16:03:39.280Z,13.10
2023-03-08T16:06:12.517Z,16.25
2023-03-08T16:08:43.266Z,12.20
2023-03-08T16:11:14.377Z,14.30
2023-03-08T16:13:44.653Z,14.90
2023-03-08T16:16:14.878Z,14.13
2023-03-08T16:18:49.061Z,13.02
2023-03-08T16:21:19.853Z,14.85
2023-03-08T16:23:50.091Z,13.52
2023-03-08T16:26:20.324Z,14.25
2023-03-08T16:28:50.828Z,11.57
2023-03-08T16:31:23.994Z,12.88
2023-03-08T16:33:56.939Z,16.30
2023-03-08T16:36:27.142Z,10.73
2023-03-08T16:38:57.385Z,13.27
2023-03-08T16:41:30.151Z,13.50
2023-03-08T16:44:00.412Z,13.52
2023-03-08T16:46:30.689Z,12.68
2023-03-08T16:49:04.133Z,12.77
2023-03-08T16:51:37.406Z,12.55
2023-03-08T16:54:09.138Z,12.30
2023-03-08T16:56:39.462Z,12.43
2023-03-08T16:59:10.033Z,12.00
2023-03-08T17:01:42.473Z,11.05
2023-03-08T17:04:15.557Z,13.80
2023-03-08T17:06:47.021Z,9.80
2023-03-08T17:09:17.343Z,13.88
2023-03-08T17:11:47.881Z,7.53
2023-03-08T17:14:18.135Z,14.57
2023-03-08T17:16:48.517Z,9.18
2023-03-08T17:19:21.408Z,11.95
2023-03-08T17:21:53.068Z,10.77
2023-03-08T17:26:54.277Z,9.98
2023-03-08T17:29:24.635Z,8.82
2023-03-08T17:31:55.159Z,6.90
2023-03-08T17:34:28.067Z,9.05
2023-03-08T17:36:58.332Z,8.38
2023-03-08T17:39:28.627Z,11.95
2023-03-08T17:41:58.849Z,11.43
2023-03-08T17:44:29.141Z,12.85
2023-03-08T17:46:59.376Z,15.60
2023-03-08T17:49:33.255Z,13.82
2023-03-08T17:52:03.505Z,11.32
2023-03-08T17:54:33.915Z,11.07
2023-03-08T17:57:04.201Z,11.65
2023-03-08T17:59:34.502Z,8.93
2023-03-08T18:02:04.779Z,9.63
2023-03-08T18:04:37.763Z,11.02
2023-03-08T18:07:08.101Z,10.10
2023-03-08T18:09:38.431Z,12.02
2023-03-08T18:12:09.259Z,10.32
2023-03-08T18:14:40.278Z,12.45
2023-03-08T18:17:10.863Z,10.95
2023-03-08T18:19:43.706Z,9.88
2023-03-08T18:22:13.982Z,9.32
2023-03-08T18:24:44.488Z,10.43
2023-03-08T18:27:14.748Z,12.20
2023-03-08T18:29:45.239Z,9.50
2023-03-08T18:32:15.446Z,8.20
2023-03-08T18:34:48.419Z,11.75
2023-03-08T18:37:18.676Z,10.98
2023-03-08T18:39:48.979Z,10.60
2023-03-08T18:42:19.434Z,11.77
2023-03-08T18:44:49.826Z,12.23
2023-03-08T18:47:20.470Z,13.20
2023-03-08T18:49:53.340Z,13.90
2023-03-08T18:52:23.745Z,12.13
2023-03-08T18:54:53.969Z,11.32
2023-03-08T18:57:24.285Z,11.05
2023-03-08T18:59:54.636Z,12.90
2023-03-08T19:02:28.240Z,15.48
2023-03-08T19:05:01.459Z,12.50
2023-03-08T19:07:31.758Z,12.63
2023-03-08T19:10:03.814Z,8.80
2023-03-08T19:12:37.398Z,11.82
2023-03-08T19:15:08.286Z,10.95
2023-03-08T19:17:38.527Z,6.60
2023-03-08T19:20:12.848Z,10.68
2023-03-08T19:22:43.131Z,9.05
2023-03-08T19:25:16.030Z,13.13
2023-03-08T19:27:46.398Z,13.63
2023-03-08T19:30:16.768Z,11.80
2023-03-08T19:32:47.123Z,15.40
2023-03-08T19:35:21.312Z,10.90
2023-03-08T19:37:51.541Z,9.98
2023-03-08T19:40:22.013Z,15.75
2023-03-08T19:42:54.795Z,13.32
2023-03-08T19:45:25.455Z,13.75
2023-03-08T19:47:55.829Z,12.38
2023-03-08T19:50:28.731Z,9.50
2023-03-08T19:52:58.979Z,13.70
2023-03-08T19:55:29.286Z,12.52
2023-03-08T19:57:59.522Z,12.13
2023-03-08T20:00:29.946Z,12.25
2023-03-08T20:03:02.282Z,11.55
2023-03-08T20:05:38.477Z,13.43
2023-03-08T20:08:08.734Z,10.60
2023-03-08T20:10:39.157Z,11.98
2023-03-08T20:13:09.407Z,10.80
2023-03-08T20:15:39.836Z,11.70
2023-03-08T20:18:10.151Z,9.43
2023-03-08T20:20:44.751Z,10.43
2023-03-08T20:23:14.964Z,13.18
2023-03-08T20:25:46.742Z,11.02
2023-03-08T20:28:18.222Z,10.52
2023-03-08T20:33:19.252Z,14.50
2023-03-08T20:35:59.306Z,8.30
2023-03-08T20:38:29.654Z,7.97
2023-03-08T20:41:08.657Z,13.02
2023-03-08T20:43:38.901Z,11.77
2023-03-08T20:46:10.459Z,12.35
2023-03-08T20:48:41.591Z,9.85
2023-03-08T20:51:15.606Z,14.45
2023-03-08T20:53:45.886Z,11.48
2023-03-08T20:56:18.027Z,11.50
2023-03-08T20:58:48.664Z,11.27
2023-03-08T21:01:20.125Z,11.13
2023-03-08T21:03:50.588Z,8.23
2023-03-08T21:06:24.250Z,12.38
2023-03-08T21:08:54.735Z,11.73
2023-03-08T21:11:25.258Z,11.60
2023-03-08T21:13:56.229Z,8.65
2023-03-08T21:16:27.912Z,11.05
2023-03-08T21:18:59.080Z,11.13
2023-03-08T21:21:34.364Z,10.60
2023-03-08T21:24:06.057Z,12.93
2023-03-08T21:26:39.724Z,12.57
2023-03-08T21:29:10.985Z,7.68
2023-03-08T21:31:43.412Z,11.90
2023-03-08T21:34:15.191Z,10.98
2023-03-08T21:36:48.297Z,10.20
2023-03-08T21:39:18.653Z,6.95
2023-03-08T21:41:50.635Z,10.90
2023-03-08T21:44:21.689Z,10.88
2023-03-08T21:46:52.083Z,10.23
2023-03-08T21:49:24.276Z,9.55
2023-03-08T21:51:58.075Z,11.98
2023-03-08T21:54:29.007Z,12.02
2023-03-08T21:56:59.568Z,11.13
2023-03-08T21:59:29.837Z,9.48
2023-03-08T22:02:00.307Z,9.52
2023-03-08T22:04:31.063Z,10.93
2023-03-08T22:07:04.180Z,12.07
2023-03-08T22:09:34.369Z,11.80
2023-03-08T22:12:04.633Z,11.05
2023-03-08T22:14:36.202Z,11.30
2023-03-08T22:17:07.403Z,10.00
2023-03-08T22:19:37.617Z,10.02
2023-03-08T22:22:11.601Z,12.20
2023-03-08T22:24:41.835Z,10.88
2023-03-08T22:27:13.259Z,13.13
2023-03-08T22:29:43.528Z,12.30
2023-03-08T22:32:13.779Z,11.15
2023-03-08T22:34:44.011Z,11.98
2023-03-08T22:37:16.904Z,10.73
2023-03-08T22:39:47.123Z,11.40
2023-03-08T22:42:17.471Z,11.27
2023-03-08T22:44:47.692Z,8.52
2023-03-08T22:47:18.041Z,11.45
2023-03-08T22:49:48.244Z,7.55
2023-03-08T22:52:21.087Z,9.90
2023-03-08T22:54:51.286Z,8.98
2023-03-08T22:57:21.814Z,8.25
2023-03-08T22:59:52.008Z,9.35
2023-03-08T23:02:22.414Z,7.07
2023-03-08T23:04:52.617Z,8.40
2023-03-08T23:07:25.472Z,6.25
2023-03-08T23:09:55.890Z,5.35
2023-03-08T23:12:26.171Z,6.63
2023-03-08T23:14:56.588Z,6.97
2023-03-08T23:17:27.186Z,7.82
2023-03-08T23:19:58.352Z,8.40
2023-03-08T23:22:31.237Z,7.68
2023-03-08T23:25:01.480Z,8.07
2023-03-08T23:27:31.765Z,7.38
2023-03-08T23:30:01.994Z,8.23
2023-03-08T23:32:32.474Z,8.75
2023-03-08T23:35:02.730Z,7.72
2023-03-08T23:37:35.591Z,6.55
2023-03-08T23:40:06.199Z,5.15
2023-03-08T23:42:37.244Z,7.78
2023-03-08T23:45:07.846Z,7.57
2023-03-08T23:47:38.627Z,6.18
2023-03-08T23:50:09.607Z,8.18
2023-03-08T23:52:42.448Z,7.35
2023-03-08T23:55:13.366Z,8.25
2023-03-08T23:57:43.615Z,6.68
